Windsor Heights, Iowa
Current Conditions -  °F | °C
As of 5:54 PM on Thursday 27 Nov 2014 (Local Time) from KDSM Reporting Station
Overcast Overcast  
Wind Chill:   Ceiling: 5500
Heat Index: 13°   Visibility: 10mi
Dew Point:   Wind: 7mph
Humidity: 59%   Direction: 120°ESE
Pressure: 30.41"   Gusts: NA
Location:  41.5811°N, 93.6759°W
Report Text: KDSM 272354Z 12006KT 10SM OVC055 M11/M17 A3041 RMK AO2 SLP318 4/002 T11061172 11094 21122 58015
Loading
Personal Weather Stations






























Interactive Weather Map New forecast layout! Learn more

10-Day Weather Forecast

Advertisements
Track Severe Weather on mobile